createdAt,value
2022-12-11T00:00:39.979Z,3.40
2022-12-11T00:03:11.383Z,3.40
2022-12-11T00:05:42.894Z,3.30
2022-12-11T00:08:10.186Z,3.30
2022-12-11T00:10:38.025Z,3.30
2022-12-11T00:13:05.611Z,3.30
2022-12-11T00:15:33.418Z,3.30
2022-12-11T00:18:00.425Z,3.30
2022-12-11T00:20:27.402Z,3.20
2022-12-11T00:22:54.375Z,3.20
2022-12-11T00:25:21.404Z,3.20
2022-12-11T00:27:48.457Z,3.10
2022-12-11T00:30:15.399Z,3.10
2022-12-11T00:32:43.450Z,3.10
2022-12-11T00:35:11.371Z,3.10
2022-12-11T00:37:38.509Z,3.00
2022-12-11T00:43:05.676Z,3.00
2022-12-11T00:45:40.925Z,3.00
2022-12-11T00:48:10.626Z,3.00
2022-12-11T00:50:38.133Z,2.90
2022-12-11T00:53:06.347Z,3.00
2022-12-11T00:55:38.502Z,2.90
2022-12-11T00:58:06.055Z,2.90
2022-12-11T01:00:33.955Z,2.90
2022-12-11T01:03:00.993Z,3.00
2022-12-11T01:05:28.177Z,2.90
2022-12-11T01:07:55.157Z,3.00
2022-12-11T01:10:25.170Z,3.00
2022-12-11T01:12:53.301Z,3.00
2022-12-11T01:15:23.143Z,3.00
2022-12-11T01:17:51.594Z,2.90
2022-12-11T01:20:20.199Z,2.90
2022-12-11T01:22:47.412Z,2.90
2022-12-11T01:25:15.016Z,2.90
2022-12-11T01:27:41.987Z,2.90
2022-12-11T01:30:09.716Z,2.90
2022-12-11T01:32:36.782Z,2.90
2022-12-11T01:35:05.638Z,2.90
2022-12-11T01:37:32.715Z,2.90
2022-12-11T01:40:00.989Z,2.90
2022-12-11T01:42:29.684Z,2.80
2022-12-11T01:45:34.640Z,2.90
2022-12-11T01:48:12.603Z,2.80
2022-12-11T01:51:05.920Z,2.80
2022-12-11T01:53:43.608Z,2.80
2022-12-11T01:56:11.600Z,2.80
2022-12-11T01:58:51.738Z,2.80
2022-12-11T02:01:44.828Z,2.80
2022-12-11T02:04:12.366Z,2.80
2022-12-11T02:06:42.164Z,2.70
2022-12-11T02:09:13.655Z,2.80
2022-12-11T02:11:46.945Z,2.80
2022-12-11T02:14:37.522Z,2.70
2022-12-11T02:17:29.638Z,2.80
2022-12-11T02:19:59.476Z,2.80
2022-12-11T02:23:03.437Z,2.80
2022-12-11T02:26:08.123Z,2.70
2022-12-11T02:28:59.712Z,2.70
2022-12-11T02:31:35.618Z,2.70
2022-12-11T02:34:16.225Z,2.70
2022-12-11T02:36:49.050Z,2.70
2022-12-11T02:39:17.521Z,2.70
2022-12-11T02:41:50.172Z,2.70
2022-12-11T02:44:21.769Z,2.70
2022-12-11T02:46:49.463Z,2.70
2022-12-11T02:49:17.697Z,2.70
2022-12-11T02:51:45.172Z,2.70
2022-12-11T02:54:27.527Z,2.60
2022-12-11T02:57:00.699Z,2.60
2022-12-11T02:59:35.583Z,2.60
2022-12-11T03:02:04.550Z,2.60
2022-12-11T03:04:34.359Z,2.60
2022-12-11T03:07:12.470Z,2.60
2022-12-11T03:09:41.554Z,2.60
2022-12-11T03:12:11.252Z,2.50
2022-12-11T03:14:40.677Z,2.50
2022-12-11T03:17:22.964Z,2.50
2022-12-11T03:19:52.904Z,2.50
2022-12-11T03:22:43.801Z,2.40
2022-12-11T03:25:17.548Z,2.40
2022-12-11T03:28:03.610Z,2.40
2022-12-11T03:30:34.540Z,2.40
2022-12-11T03:33:07.007Z,2.40
2022-12-11T03:35:36.870Z,2.40
2022-12-11T03:38:10.018Z,2.40
2022-12-11T03:40:38.974Z,2.40
2022-12-11T03:43:07.340Z,2.40
2022-12-11T03:45:36.046Z,2.40
2022-12-11T03:48:03.559Z,2.30
2022-12-11T03:50:32.795Z,2.40
2022-12-11T03:53:01.964Z,2.40
2022-12-11T03:55:30.956Z,2.30
2022-12-11T03:57:57.917Z,2.30
2022-12-11T04:00:25.337Z,2.30
2022-12-11T04:03:15.442Z,2.40
2022-12-11T04:05:51.076Z,2.40
2022-12-11T04:08:21.072Z,2.40
2022-12-11T04:10:49.161Z,2.30
2022-12-11T04:13:16.210Z,2.40
2022-12-11T04:15:43.285Z,2.40
2022-12-11T04:18:29.698Z,2.40
2022-12-11T04:21:15.848Z,2.40
2022-12-11T04:24:01.492Z,2.40
2022-12-11T04:26:28.571Z,2.30
2022-12-11T04:28:55.658Z,2.30
2022-12-11T04:31:23.273Z,2.30
2022-12-11T04:33:50.550Z,2.30
2022-12-11T04:36:17.574Z,2.30
2022-12-11T04:38:44.553Z,2.30
2022-12-11T04:41:14.277Z,2.30
2022-12-11T04:43:41.349Z,2.30
2022-12-11T04:46:12.374Z,2.30
2022-12-11T04:48:40.194Z,2.30
2022-12-11T04:51:08.184Z,2.20
2022-12-11T04:53:36.354Z,2.10
2022-12-11T04:56:06.773Z,2.10
2022-12-11T04:58:33.979Z,2.10
2022-12-11T05:01:00.926Z,2.10
2022-12-11T05:03:27.905Z,2.00
2022-12-11T05:05:54.842Z,1.90
2022-12-11T05:08:22.120Z,1.90
2022-12-11T05:10:57.860Z,1.90
2022-12-11T05:13:25.072Z,1.80
2022-12-11T05:15:52.109Z,1.70
2022-12-11T05:18:19.144Z,1.70
2022-12-11T05:20:54.649Z,1.70
2022-12-11T05:23:21.584Z,1.70
2022-12-11T05:25:59.886Z,1.70
2022-12-11T05:28:28.565Z,1.70
2022-12-11T05:31:01.238Z,1.70
2022-12-11T05:33:29.048Z,1.70
2022-12-11T05:35:56.691Z,1.70
2022-12-11T05:38:24.246Z,1.60
2022-12-11T05:41:02.093Z,1.60
2022-12-11T05:43:32.280Z,1.70
2022-12-11T05:46:09.493Z,1.70
2022-12-11T05:48:37.841Z,1.70
2022-12-11T05:51:06.348Z,1.70
2022-12-11T05:53:34.055Z,1.70
2022-12-11T05:56:11.021Z,1.70
2022-12-11T05:58:38.122Z,1.70
2022-12-11T06:01:14.246Z,1.70
2022-12-11T06:03:41.311Z,1.80
2022-12-11T06:06:08.385Z,1.80
2022-12-11T06:08:35.709Z,1.80
2022-12-11T06:11:03.361Z,1.80
2022-12-11T06:13:30.367Z,1.80
2022-12-11T06:16:06.160Z,1.90
2022-12-11T06:18:40.575Z,1.90
2022-12-11T06:21:24.836Z,1.90
2022-12-11T06:23:53.733Z,1.90
2022-12-11T06:26:22.088Z,1.90
2022-12-11T06:28:49.970Z,1.90
2022-12-11T06:31:17.839Z,2.00
2022-12-11T06:33:45.404Z,1.90
2022-12-11T06:36:20.619Z,1.90
2022-12-11T06:38:48.058Z,1.90
2022-12-11T06:41:15.214Z,1.90
2022-12-11T06:43:43.385Z,1.90
2022-12-11T06:46:15.576Z,1.90
2022-12-11T06:48:43.859Z,1.90
2022-12-11T06:51:19.072Z,1.90
2022-12-11T06:53:51.100Z,1.80
2022-12-11T06:56:18.079Z,1.80
2022-12-11T06:58:45.026Z,1.80
2022-12-11T07:01:27.546Z,1.80
2022-12-11T07:03:56.198Z,1.80
2022-12-11T07:06:24.445Z,1.80
2022-12-11T07:08:51.643Z,1.80
2022-12-11T07:11:20.474Z,1.80
2022-12-11T07:13:47.878Z,1.80
2022-12-11T07:16:16.665Z,1.80
2022-12-11T07:18:48.092Z,1.80
2022-12-11T07:21:15.148Z,1.80
2022-12-11T07:23:42.197Z,1.80
2022-12-11T07:26:12.521Z,1.80
2022-12-11T07:28:40.696Z,1.80
2022-12-11T07:31:16.745Z,1.80
2022-12-11T07:33:43.899Z,1.90
2022-12-11T07:36:12.839Z,1.80
2022-12-11T07:38:40.458Z,1.90
2022-12-11T07:41:11.033Z,1.80
2022-12-11T07:43:38.578Z,1.80
2022-12-11T07:46:08.073Z,1.80
2022-12-11T07:48:39.917Z,1.80
2022-12-11T07:51:28.140Z,1.80
2022-12-11T07:54:02.609Z,1.80
2022-12-11T07:56:30.745Z,1.80
2022-12-11T07:59:01.271Z,1.80
2022-12-11T08:01:30.133Z,1.80
2022-12-11T08:03:58.070Z,1.80
2022-12-11T08:06:28.817Z,1.90
2022-12-11T08:08:56.997Z,1.90
2022-12-11T08:11:24.158Z,1.90
2022-12-11T08:13:51.295Z,1.90
2022-12-11T08:16:19.299Z,1.90
2022-12-11T08:18:48.074Z,1.90
2022-12-11T08:21:16.842Z,1.90
2022-12-11T08:23:44.386Z,1.80
2022-12-11T08:26:23.430Z,1.80
2022-12-11T08:28:50.487Z,1.80
2022-12-11T08:31:18.540Z,1.80
2022-12-11T08:33:46.279Z,1.80
2022-12-11T08:36:16.409Z,1.80
2022-12-11T08:38:44.909Z,1.70
2022-12-11T08:41:17.849Z,1.70
2022-12-11T08:43:45.115Z,1.70
2022-12-11T08:46:13.774Z,1.70
2022-12-11T08:48:42.449Z,1.70
2022-12-11T08:51:13.441Z,1.70
2022-12-11T08:53:40.625Z,1.60
2022-12-11T08:56:10.680Z,1.60
2022-12-11T08:58:38.286Z,1.60
2022-12-11T09:01:10.751Z,1.60
2022-12-11T09:03:38.343Z,1.60
2022-12-11T09:06:11.042Z,1.60
2022-12-11T09:08:38.315Z,1.60
2022-12-11T09:11:10.602Z,1.60
2022-12-11T09:13:38.294Z,1.60
2022-12-11T09:16:07.721Z,1.70
2022-12-11T09:18:34.817Z,1.80
2022-12-11T09:21:02.777Z,1.90
2022-12-11T09:23:30.414Z,2.00
2022-12-11T09:25:58.756Z,2.10
2022-12-11T09:28:26.245Z,2.20
2022-12-11T09:30:53.223Z,2.20
2022-12-11T09:33:20.445Z,2.30
2022-12-11T09:35:56.635Z,2.30
2022-12-11T09:38:23.612Z,2.40
2022-12-11T09:40:50.587Z,2.40
2022-12-11T09:43:31.976Z,2.50
2022-12-11T09:46:03.296Z,2.60
2022-12-11T09:48:33.857Z,2.60
2022-12-11T09:51:05.633Z,2.60
2022-12-11T09:53:37.227Z,2.60
2022-12-11T09:56:21.745Z,2.60
2022-12-11T09:59:13.316Z,2.60
2022-12-11T10:01:41.097Z,2.60
2022-12-11T10:04:10.862Z,2.60
2022-12-11T10:06:47.775Z,2.60
2022-12-11T10:09:28.647Z,2.60
2022-12-11T10:12:20.826Z,2.60
2022-12-11T10:14:53.895Z,2.70
2022-12-11T10:17:29.865Z,2.70
2022-12-11T10:20:15.691Z,2.80
2022-12-11T10:22:43.549Z,2.70
2022-12-11T10:25:28.837Z,2.80
2022-12-11T10:27:56.477Z,2.80
2022-12-11T10:30:25.031Z,2.90
2022-12-11T10:33:06.771Z,2.90
2022-12-11T10:35:42.505Z,2.90
2022-12-11T10:38:21.272Z,2.80
2022-12-11T10:40:53.348Z,2.80
2022-12-11T10:43:20.684Z,2.70
2022-12-11T10:45:52.873Z,2.60
2022-12-11T10:48:20.320Z,2.40
2022-12-11T10:51:01.112Z,2.40
2022-12-11T10:53:29.362Z,2.30
2022-12-11T10:55:58.695Z,2.30
2022-12-11T10:58:29.108Z,2.30
2022-12-11T11:01:14.288Z,2.30
2022-12-11T11:04:01.026Z,2.30
2022-12-11T11:06:28.169Z,2.30
2022-12-11T11:08:58.560Z,2.30
2022-12-11T11:11:35.295Z,2.30
2022-12-11T11:14:18.261Z,2.30
2022-12-11T11:16:48.904Z,2.40
2022-12-11T11:19:25.963Z,2.40
2022-12-11T11:22:03.111Z,2.50
2022-12-11T11:24:44.402Z,2.50
2022-12-11T11:27:46.614Z,2.50
2022-12-11T11:30:27.130Z,2.60
2022-12-11T11:33:01.651Z,2.70
2022-12-11T11:35:30.953Z,2.70
2022-12-11T11:38:09.624Z,2.70
2022-12-11T11:40:53.464Z,2.80
2022-12-11T11:43:44.686Z,2.80
2022-12-11T11:46:36.880Z,2.80
2022-12-11T11:49:21.399Z,2.90
2022-12-11T11:52:12.006Z,2.80
2022-12-11T11:55:21.482Z,2.80
2022-12-11T11:58:03.573Z,2.80
2022-12-11T12:00:33.817Z,2.90
2022-12-11T12:03:09.501Z,3.00
2022-12-11T12:05:55.612Z,3.00
2022-12-11T12:08:45.633Z,3.10
2022-12-11T12:11:18.431Z,3.10
2022-12-11T12:14:02.159Z,3.00
2022-12-11T12:16:52.579Z,2.90
2022-12-11T12:19:41.093Z,2.90
2022-12-11T12:22:28.222Z,2.70
2022-12-11T12:25:04.220Z,2.60
2022-12-11T12:28:22.017Z,2.60
2022-12-11T12:30:57.964Z,2.50
2022-12-11T12:33:43.301Z,2.50
2022-12-11T12:36:16.353Z,2.60
2022-12-11T12:38:48.816Z,2.60
2022-12-11T12:41:24.890Z,2.50
2022-12-11T12:44:18.775Z,2.40
2022-12-11T12:47:13.631Z,2.40
2022-12-11T12:49:43.465Z,2.40
2022-12-11T12:52:31.812Z,2.40
2022-12-11T12:55:29.244Z,2.50
2022-12-11T12:58:06.109Z,2.50
2022-12-11T13:00:42.669Z,2.50
2022-12-11T13:03:27.992Z,2.50
2022-12-11T13:06:09.856Z,2.40
2022-12-11T13:08:48.525Z,2.30
2022-12-11T13:11:18.851Z,2.30
2022-12-11T13:14:03.806Z,2.20
2022-12-11T13:16:42.612Z,2.20
2022-12-11T13:19:27.654Z,2.10
2022-12-11T13:22:12.889Z,2.10
2022-12-11T13:24:52.278Z,2.10
2022-12-11T13:27:44.056Z,2.10
2022-12-11T13:30:21.014Z,2.10
2022-12-11T13:33:05.169Z,2.10
2022-12-11T13:35:34.207Z,2.10
2022-12-11T13:38:20.438Z,2.10
2022-12-11T13:40:55.395Z,2.10
2022-12-11T13:43:30.576Z,2.00
2022-12-11T13:46:07.614Z,2.00
2022-12-11T13:48:39.629Z,1.90
2022-12-11T13:51:07.606Z,1.90
2022-12-11T13:53:35.031Z,1.90
2022-12-11T13:56:05.782Z,1.90
2022-12-11T13:58:39.042Z,1.80
2022-12-11T14:01:11.832Z,1.80
2022-12-11T14:03:59.437Z,1.80
2022-12-11T14:06:29.428Z,1.70
2022-12-11T14:08:59.630Z,1.70
2022-12-11T14:11:37.951Z,1.70
2022-12-11T14:14:28.538Z,1.70
2022-12-11T14:16:55.831Z,1.70
2022-12-11T14:19:25.070Z,1.70
2022-12-11T14:22:19.555Z,1.60
2022-12-11T14:24:52.051Z,1.60
2022-12-11T14:27:20.443Z,1.60
2022-12-11T14:29:48.622Z,1.60
2022-12-11T14:32:36.779Z,1.50
2022-12-11T14:35:11.227Z,1.50
2022-12-11T14:37:39.628Z,1.40
2022-12-11T14:40:16.392Z,1.40
2022-12-11T14:43:08.180Z,1.40
2022-12-11T14:45:38.724Z,1.40
2022-12-11T14:48:15.178Z,1.30
2022-12-11T14:50:48.826Z,1.30
2022-12-11T14:53:38.610Z,1.20
2022-12-11T14:56:08.428Z,1.20
2022-12-11T14:58:46.157Z,1.20
2022-12-11T15:01:25.059Z,1.20
2022-12-11T15:04:07.576Z,1.10
2022-12-11T15:06:44.185Z,1.10
2022-12-11T15:09:41.816Z,1.10
2022-12-11T15:12:15.407Z,1.10
2022-12-11T15:15:04.090Z,1.10
2022-12-11T15:17:31.315Z,1.10
2022-12-11T15:20:10.422Z,1.10
2022-12-11T15:22:38.381Z,1.00
2022-12-11T15:25:06.469Z,1.00
2022-12-11T15:27:37.290Z,1.00
2022-12-11T15:30:27.126Z,1.00
2022-12-11T15:33:09.951Z,1.00
2022-12-11T15:35:39.518Z,1.00
2022-12-11T15:38:07.070Z,1.00
2022-12-11T15:40:34.329Z,1.00
2022-12-11T15:43:03.591Z,1.00
2022-12-11T15:45:31.148Z,1.00
2022-12-11T15:47:59.699Z,1.00
2022-12-11T15:50:29.246Z,1.00
2022-12-11T15:52:58.014Z,1.00
2022-12-11T15:55:30.142Z,1.00
2022-12-11T15:58:00.676Z,1.10
2022-12-11T16:00:28.678Z,1.10
2022-12-11T16:02:57.317Z,1.10
2022-12-11T16:05:26.190Z,1.10
2022-12-11T16:07:54.885Z,1.20
2022-12-11T16:10:22.782Z,1.10
2022-12-11T16:12:50.573Z,1.20
2022-12-11T16:15:23.481Z,1.10
2022-12-11T16:17:59.429Z,1.10
2022-12-11T16:20:27.264Z,1.10
2022-12-11T16:22:54.795Z,1.10
2022-12-11T16:25:22.490Z,1.10
2022-12-11T16:27:49.904Z,1.10
2022-12-11T16:30:17.274Z,1.10
2022-12-11T16:32:44.541Z,1.10
2022-12-11T16:35:12.121Z,1.10
2022-12-11T16:37:39.761Z,1.10
2022-12-11T16:40:08.486Z,1.00
2022-12-11T16:42:35.919Z,1.00
2022-12-11T16:45:09.531Z,1.00
2022-12-11T16:47:37.155Z,1.00
2022-12-11T16:50:05.044Z,1.10
2022-12-11T16:52:33.516Z,1.10
2022-12-11T16:55:00.687Z,1.10
2022-12-11T16:57:28.650Z,1.00
2022-12-11T16:59:56.096Z,1.00
2022-12-11T17:02:23.719Z,1.00
2022-12-11T17:04:53.991Z,1.10
2022-12-11T17:07:21.755Z,1.00
2022-12-11T17:09:49.559Z,1.10
2022-12-11T17:12:16.738Z,1.00
2022-12-11T17:14:44.244Z,1.00
2022-12-11T17:17:11.378Z,1.00
2022-12-11T17:19:38.749Z,1.10
2022-12-11T17:22:06.295Z,1.10
2022-12-11T17:24:33.771Z,1.10
2022-12-11T17:27:01.570Z,1.10
2022-12-11T17:29:28.932Z,1.10
2022-12-11T17:31:56.193Z,1.10
2022-12-11T17:34:23.218Z,1.10
2022-12-11T17:36:52.422Z,1.20
2022-12-11T17:39:20.113Z,1.20
2022-12-11T17:41:47.532Z,1.10
2022-12-11T17:44:15.118Z,1.20
2022-12-11T17:46:43.464Z,1.20
2022-12-11T17:49:10.882Z,1.20
2022-12-11T17:51:38.148Z,1.30
2022-12-11T17:54:05.497Z,1.30
2022-12-11T17:56:35.160Z,1.20
2022-12-11T17:59:03.657Z,1.20
2022-12-11T18:01:30.993Z,1.10
2022-12-11T18:04:02.336Z,1.10
2022-12-11T18:06:30.669Z,1.10
2022-12-11T18:08:58.705Z,1.10
2022-12-11T18:11:26.545Z,1.10
2022-12-11T18:13:54.291Z,1.10
2022-12-11T18:16:26.989Z,1.10
2022-12-11T18:18:54.904Z,1.00
2022-12-11T18:21:26.244Z,0.90
2022-12-11T18:23:54.377Z,0.90
2022-12-11T18:26:22.865Z,1.00
2022-12-11T18:28:51.496Z,0.90
2022-12-11T18:31:20.364Z,0.90
2022-12-11T18:33:48.792Z,0.90
2022-12-11T18:36:25.938Z,0.90
2022-12-11T18:38:55.489Z,0.80
2022-12-11T18:41:23.151Z,0.90
2022-12-11T18:43:51.084Z,0.90
2022-12-11T18:46:21.658Z,0.90
2022-12-11T18:48:50.920Z,1.00
2022-12-11T18:51:26.915Z,0.90
2022-12-11T18:53:54.905Z,1.00
2022-12-11T18:56:23.122Z,1.00
2022-12-11T18:58:51.727Z,1.00
2022-12-11T19:01:25.468Z,1.00
2022-12-11T19:04:00.795Z,1.00
2022-12-11T19:06:33.693Z,1.00
2022-12-11T19:09:02.455Z,1.00
2022-12-11T19:11:34.915Z,1.10
2022-12-11T19:14:04.558Z,1.10
2022-12-11T19:16:36.078Z,1.10
2022-12-11T19:19:10.554Z,1.00
2022-12-11T19:21:39.745Z,1.00
2022-12-11T19:24:10.378Z,1.00
2022-12-11T19:26:39.125Z,1.00
2022-12-11T19:29:07.088Z,1.00
2022-12-11T19:31:35.235Z,1.00
2022-12-11T19:34:05.332Z,1.00
2022-12-11T19:36:37.845Z,1.00
2022-12-11T19:39:11.298Z,1.00
2022-12-11T19:41:41.422Z,1.00
2022-12-11T19:44:08.967Z,1.00
2022-12-11T19:46:37.277Z,1.00
2022-12-11T19:49:06.624Z,0.90
2022-12-11T19:51:38.609Z,0.90
2022-12-11T19:54:08.807Z,0.90
2022-12-11T19:56:36.906Z,0.90
2022-12-11T19:59:11.829Z,0.90
2022-12-11T20:01:41.060Z,0.90
2022-12-11T20:04:13.105Z,1.00
2022-12-11T20:06:44.409Z,1.00
2022-12-11T20:09:15.118Z,1.00
2022-12-11T20:11:44.897Z,1.00
2022-12-11T20:14:25.685Z,0.90
2022-12-11T20:17:13.498Z,1.00
2022-12-11T20:19:43.680Z,1.00
2022-12-11T20:22:12.043Z,1.00
2022-12-11T20:24:40.150Z,1.00
2022-12-11T20:27:07.465Z,1.00
2022-12-11T20:29:34.961Z,1.00
2022-12-11T20:32:04.076Z,0.90
2022-12-11T20:34:32.219Z,1.00
2022-12-11T20:37:00.921Z,1.00
2022-12-11T20:39:29.914Z,0.90
2022-12-11T20:41:57.858Z,1.00
2022-12-11T20:44:25.670Z,1.00
2022-12-11T20:46:53.439Z,0.90
2022-12-11T20:49:21.220Z,1.00
2022-12-11T20:51:48.504Z,0.90
2022-12-11T20:54:16.408Z,0.90
2022-12-11T20:56:44.406Z,0.90
2022-12-11T20:59:12.425Z,1.00
2022-12-11T21:01:41.091Z,1.00
2022-12-11T21:04:08.671Z,1.00
2022-12-11T21:06:38.937Z,0.90
2022-12-11T21:09:09.699Z,0.90
2022-12-11T21:11:37.252Z,0.90
2022-12-11T21:14:05.669Z,0.90
2022-12-11T21:16:34.622Z,0.90
2022-12-11T21:19:05.014Z,0.90
2022-12-11T21:21:34.296Z,0.90
2022-12-11T21:24:01.398Z,0.90
2022-12-11T21:26:28.519Z,0.90
2022-12-11T21:28:55.868Z,0.90
2022-12-11T21:31:23.678Z,0.90
2022-12-11T21:33:51.349Z,0.90
2022-12-11T21:36:18.541Z,0.90
2022-12-11T21:38:46.633Z,0.90
2022-12-11T21:41:22.887Z,0.80
2022-12-11T21:46:39.818Z,0.80
2022-12-11T21:49:08.709Z,0.80
2022-12-11T21:51:41.500Z,0.90
2022-12-11T21:54:15.722Z,0.90
2022-12-11T21:56:42.788Z,0.90
2022-12-11T21:59:09.937Z,0.90
2022-12-11T22:01:42.143Z,0.80
2022-12-11T22:04:10.699Z,0.90
2022-12-11T22:06:37.806Z,0.80
2022-12-11T22:09:05.510Z,0.90
2022-12-11T22:11:33.660Z,0.80
2022-12-11T22:14:01.417Z,0.90
2022-12-11T22:16:28.388Z,0.80
2022-12-11T22:18:55.360Z,0.80
2022-12-11T22:21:22.326Z,0.80
2022-12-11T22:23:49.420Z,0.80
2022-12-11T22:26:19.787Z,0.80
2022-12-11T22:28:47.037Z,0.80
2022-12-11T22:31:16.894Z,0.80
2022-12-11T22:33:43.895Z,0.70
2022-12-11T22:36:12.213Z,0.70
2022-12-11T22:38:39.785Z,0.70
2022-12-11T22:41:22.203Z,0.60
2022-12-11T22:43:50.210Z,0.60
2022-12-11T22:46:20.299Z,0.60
2022-12-11T22:48:47.343Z,0.60
2022-12-11T22:51:14.424Z,0.60
2022-12-11T22:53:41.404Z,0.60
2022-12-11T22:56:10.612Z,0.60
2022-12-11T22:58:37.910Z,0.60
2022-12-11T23:01:10.961Z,0.60
2022-12-11T23:03:38.629Z,0.60
2022-12-11T23:06:11.606Z,0.50
2022-12-11T23:08:39.946Z,0.50
2022-12-11T23:11:20.052Z,0.50
2022-12-11T23:13:47.440Z,0.40
2022-12-11T23:16:14.627Z,0.40
2022-12-11T23:18:41.891Z,0.30
2022-12-11T23:21:10.481Z,0.30
2022-12-11T23:23:37.513Z,0.30
2022-12-11T23:26:06.429Z,0.30
2022-12-11T23:28:33.637Z,0.30
2022-12-11T23:31:00.708Z,0.20
2022-12-11T23:33:27.797Z,0.20
2022-12-11T23:35:55.097Z,0.20
2022-12-11T23:38:22.066Z,0.20
2022-12-11T23:40:49.133Z,0.20
2022-12-11T23:43:16.169Z,0.20
2022-12-11T23:45:46.361Z,0.20
2022-12-11T23:48:14.073Z,0.20
2022-12-11T23:50:42.633Z,0.20
2022-12-11T23:53:09.703Z,0.10
2022-12-11T23:55:40.464Z,0.10
2022-12-11T23:58:07.582Z,0.10
